Time;durP1;ratioP1;P1;durP2;ratioP2;P2;SDS_P1;SDS_P2;PMS_P1;PMS_P2;Temp;Humidity;BMP_temperature;BMP_pressure;BME280_temperature;BME280_humidity;BME280_pressure;Samples;Min_cycle;Max_cycle;Signal;HPM_P1;HPM_P2
2022/07/07 00:01:41;;;;;;;4.92;4.45;;;;;;;11.95;87.15;99183.61;2211449;81;20972;-83
2022/07/07 00:04:43;;;;;;;6.92;4.37;;;;;;;11.93;87.18;99185.34;2211267;80;20980;-82
2022/07/07 00:07:43;;;;;;;7.45;4.10;;;;;;;11.95;87.41;99186.66;2211379;81;21380;-82
2022/07/07 00:10:44;;;;;;;68.33;7.20;;;;;;;11.97;87.44;99188.44;2211184;80;20945;-83
2022/07/07 00:13:44;;;;;;;4.15;3.72;;;;;;;11.96;87.66;99185.37;2211270;81;20925;-83
2022/07/07 00:16:44;;;;;;;7.08;4.15;;;;;;;11.95;87.66;99182.31;2211199;80;20921;-82
2022/07/07 00:19:45;;;;;;;9.35;4.87;;;;;;;11.92;87.68;99180.09;2211136;80;20956;-81
2022/07/07 00:22:45;;;;;;;7.87;4.67;;;;;;;12.65;100.00;99177.82;2211230;80;21300;-82
2022/07/07 00:25:46;;;;;;;5.08;4.30;;;;;;;13.53;89.27;99171.08;2211269;80;21012;-82
2022/07/07 00:28:46;;;;;;;13.72;4.20;;;;;;;13.11;85.44;99172.09;2211198;80;20976;-82
2022/07/07 00:31:46;;;;;;;8.98;4.40;;;;;;;12.76;85.22;99177.48;2210776;80;21356;-82
2022/07/07 00:34:47;;;;;;;6.75;4.47;;;;;;;12.55;85.22;99180.34;2195697;80;21444;-82
2022/07/07 00:37:47;;;;;;;7.03;4.05;;;;;;;12.33;85.26;99178.83;2195424;81;20917;-81
2022/07/07 00:40:48;;;;;;;6.83;4.08;;;;;;;12.18;85.56;99176.48;2195504;81;20905;-83
2022/07/07 00:43:48;;;;;;;10.28;4.10;;;;;;;12.06;85.63;99186.36;2195360;81;20941;-82
2022/07/07 00:46:49;;;;;;;4.28;3.92;;;;;;;11.90;85.51;99186.61;2195846;81;20964;-83
2022/07/07 00:49:49;;;;;;;6.25;4.50;;;;;;;11.78;86.42;99190.38;2195292;81;20992;-82
2022/07/07 00:52:49;;;;;;;7.40;4.40;;;;;;;12.65;91.11;99183.06;2196118;81;20950;-82
2022/07/07 00:55:50;;;;;;;9.30;4.70;;;;;;;12.61;86.01;99177.35;2196013;81;20941;-82
2022/07/07 00:58:50;;;;;;;7.05;4.62;;;;;;;12.38;85.20;99177.56;2195965;81;20985;-82
2022/07/07 01:01:50;;;;;;;8.35;4.15;;;;;;;12.15;84.91;99168.60;2195857;81;21297;-82
2022/07/07 01:04:51;;;;;;;10.10;4.22;;;;;;;13.28;90.12;99170.50;2195901;81;21004;-82
2022/07/07 01:07:52;;;;;;;8.70;4.00;;;;;;;13.18;84.51;99170.87;2195532;81;21031;-82
2022/07/07 01:10:52;;;;;;;5.78;3.90;;;;;;;12.85;83.49;99182.34;2194372;81;20953;-81
2022/07/07 01:13:52;;;;;;;12.82;4.20;;;;;;;12.60;83.52;99179.52;2194151;81;21340;-82
2022/07/07 01:16:52;;;;;;;9.60;4.40;;;;;;;12.42;83.91;99181.54;2194093;81;20957;-82
2022/07/07 01:19:53;;;;;;;7.12;4.20;;;;;;;12.32;84.29;99177.51;2195136;81;20937;-84
2022/07/07 01:22:53;;;;;;;13.65;4.87;;;;;;;12.52;93.29;99158.94;2195444;81;20953;-80
2022/07/07 01:25:54;;;;;;;11.43;4.20;;;;;;;13.81;87.16;99161.58;2195008;81;20956;-80
2022/07/07 01:28:54;;;;;;;6.67;4.58;;;;;;;13.49;83.50;99161.88;2195176;81;20945;-80
2022/07/07 01:31:55;;;;;;;8.78;4.42;;;;;;;13.14;82.41;99163.82;2194904;81;20961;-80
2022/07/07 01:34:55;;;;;;;8.88;4.53;;;;;;;12.79;82.09;99166.58;2207541;80;21019;-80
2022/07/07 01:37:56;;;;;;;5.35;4.30;;;;;;;12.50;82.54;99166.33;2210363;81;21003;-80
2022/07/07 01:40:56;;;;;;;6.22;4.60;;;;;;;12.31;83.24;99167.47;2210379;81;20927;-82
2022/07/07 01:43:56;;;;;;;6.10;3.90;;;;;;;12.19;83.61;99163.84;2210424;80;20925;-81
2022/07/07 01:46:57;;;;;;;11.25;5.00;;;;;;;12.40;92.25;99161.45;2210245;81;20984;-81
2022/07/07 01:49:57;;;;;;;9.43;4.50;;;;;;;13.21;86.13;99170.02;2210423;81;20983;-80
2022/07/07 01:52:58;;;;;;;8.73;4.62;;;;;;;13.06;83.81;99165.52;2210568;80;20956;-79
2022/07/07 01:55:58;;;;;;;9.10;4.78;;;;;;;12.80;83.51;99160.48;2210734;80;21416;-82
2022/07/07 01:58:58;;;;;;;15.43;4.83;;;;;;;12.62;83.70;99168.63;2210700;80;21359;-84
2022/07/07 02:01:59;;;;;;;22.70;4.85;;;;;;;13.21;91.71;99156.91;2210922;81;20920;-83
2022/07/07 02:04:59;;;;;;;36.40;6.60;;;;;;;14.68;89.66;99154.39;2210650;80;21035;-83
2022/07/07 02:08:00;;;;;;;15.90;4.97;;;;;;;15.70;85.33;99154.30;2210749;80;20960;-81
2022/07/07 02:11:12;;;;;;;15.65;4.35;;;;;;;16.33;80.90;99158.37;2210943;80;21012;-83
2022/07/07 02:14:12;;;;;;;10.13;4.12;;;;;;;16.70;78.75;99153.78;2211001;80;20972;-83
2022/07/07 02:17:13;;;;;;;30.88;4.90;;;;;;;17.07;76.48;99149.05;2210678;81;20956;-82
2022/07/07 02:20:13;;;;;;;23.40;5.28;;;;;;;17.29;74.30;99138.30;2211248;80;20988;-83
2022/07/07 02:23:14;;;;;;;31.40;4.72;;;;;;;17.39;72.93;99146.57;2211262;81;20989;-83
2022/07/07 02:26:14;;;;;;;20.92;4.25;;;;;;;17.48;71.57;99143.83;2211201;80;21296;-83
2022/07/07 02:29:14;;;;;;;6.42;3.52;;;;;;;17.53;71.05;99149.93;2210848;80;20956;-83
2022/07/07 02:32:15;;;;;;;6.85;3.45;;;;;;;17.64;70.12;99145.41;2211022;81;20992;-82
2022/07/07 02:35:15;;;;;;;16.20;4.00;;;;;;;17.72;68.79;99142.70;2210080;81;21396;-82
2022/07/07 02:38:16;;;;;;;6.12;3.08;;;;;;;16.71;66.36;99144.11;2210806;80;20933;-83
2022/07/07 02:41:16;;;;;;;4.45;3.30;;;;;;;15.60;67.10;99150.80;2210718;80;21007;-82
2022/07/07 02:44:16;;;;;;;20.62;4.85;;;;;;;14.76;68.57;99150.92;2210851;80;20968;-82
2022/07/07 02:47:17;;;;;;;7.37;4.72;;;;;;;14.11;69.94;99142.90;2210404;80;21368;-82
2022/07/07 02:50:17;;;;;;;8.28;3.80;;;;;;;13.20;72.66;99155.16;2210680;80;20913;-83
2022/07/07 02:53:18;;;;;;;9.40;3.87;;;;;;;13.20;72.66;99155.16;2210802;80;20945;-82
2022/07/07 02:56:18;;;;;;;16.32;4.40;;;;;;;12.94;73.79;99153.60;2210721;80;20960;-82
2022/07/07 02:59:18;;;;;;;21.07;4.30;;;;;;;12.73;74.69;99160.43;2210737;80;20992;-80
2022/07/07 03:02:19;;;;;;;5.05;4.10;;;;;;;12.51;75.47;99154.56;2210576;81;20948;-82
2022/07/07 03:05:19;;;;;;;6.47;4.05;;;;;;;12.38;76.41;99150.95;2210478;80;21012;-82
2022/07/07 03:08:20;;;;;;;13.55;4.33;;;;;;;12.27;77.16;99151.72;2210452;80;21042;-82
2022/07/07 03:11:20;;;;;;;11.20;4.30;;;;;;;12.20;77.82;99156.02;2210649;81;20924;-81
2022/07/07 03:14:20;;;;;;;8.93;4.33;;;;;;;12.12;78.47;99155.02;2210285;80;20937;-81
2022/07/07 03:17:21;;;;;;;7.70;4.40;;;;;;;12.06;78.86;99155.83;2211041;81;21009;-81
2022/07/07 03:20:21;;;;;;;18.57;4.62;;;;;;;12.07;79.39;99156.28;2211082;80;20999;-81
2022/07/07 03:23:22;;;;;;;12.03;5.20;;;;;;;12.07;79.81;99153.66;2210240;80;20929;-81
2022/07/07 03:26:22;;;;;;;11.85;5.20;;;;;;;12.05;80.15;99155.39;2209995;80;20952;-82
2022/07/07 03:29:22;;;;;;;10.03;4.47;;;;;;;12.08;80.48;99150.19;2210476;81;20964;-80
2022/07/07 03:32:23;;;;;;;13.55;4.95;;;;;;;12.11;80.78;99148.91;2210327;80;20904;-83
2022/07/07 03:35:23;;;;;;;8.20;4.62;;;;;;;12.17;81.30;99151.17;2209952;81;21023;-83
2022/07/07 03:38:24;;;;;;;8.48;4.35;;;;;;;12.26;81.61;99150.84;2210652;80;20980;-83
2022/07/07 03:41:24;;;;;;;8.15;4.53;;;;;;;12.37;82.20;99153.56;2210963;80;20999;-82
2022/07/07 03:44:25;;;;;;;7.10;5.03;;;;;;;12.44;81.86;99151.02;2210862;80;20987;-81
2022/07/07 03:47:25;;;;;;;12.05;5.28;;;;;;;12.46;81.95;99149.72;2210453;80;20991;-82
2022/07/07 03:50:25;;;;;;;35.98;5.75;;;;;;;12.48;82.09;99157.16;2209950;80;20933;-81
2022/07/07 03:53:30;;;;;;;13.83;4.08;;;;;;;12.47;82.21;99156.71;2209874;81;20972;-81
2022/07/07 03:56:28;;;;;;;6.72;5.10;;;;;;;12.47;82.04;99147.98;2187720;81;21273;-81
2022/07/07 03:59:29;;;;;;;7.58;5.42;;;;;;;12.39;82.28;99149.22;2210403;80;20941;-82
2022/07/07 04:02:29;;;;;;;14.53;5.58;;;;;;;12.37;82.72;99149.20;2210191;80;20925;-83
2022/07/07 04:05:29;;;;;;;7.85;6.53;;;;;;;12.37;82.98;99147.89;2209454;80;20968;-81
2022/07/07 04:08:32;;;;;;;10.48;5.78;;;;;;;12.41;83.22;99156.66;2188306;81;20940;-80
2022/07/07 04:11:32;;;;;;;8.10;5.87;;;;;;;12.50;83.41;99154.13;2209400;80;21007;-81
2022/07/07 04:14:32;;;;;;;6.65;6.00;;;;;;;12.72;83.78;99154.75;2209354;81;20976;-80
2022/07/07 04:17:33;;;;;;;9.15;6.10;;;;;;;12.97;83.77;99153.63;2210294;80;21371;-80
2022/07/07 04:20:33;;;;;;;7.50;5.62;;;;;;;13.17;83.83;99146.84;2209695;81;20956;-80
2022/07/07 04:23:34;;;;;;;10.58;6.15;;;;;;;13.42;83.84;99137.80;2209011;81;20976;-80
2022/07/07 04:26:34;;;;;;;25.45;7.08;;;;;;;13.75;83.86;99144.94;2208870;80;21425;-80
2022/07/07 04:29:35;;;;;;;12.18;6.03;;;;;;;14.05;83.79;99146.82;2209390;80;20990;-80
2022/07/07 04:32:35;;;;;;;15.25;6.80;;;;;;;14.25;83.26;99145.99;2209318;80;20983;-80
2022/07/07 04:35:35;;;;;;;13.70;6.22;;;;;;;14.46;82.52;99145.18;2206775;80;21035;-79
2022/07/07 04:38:36;;;;;;;7.92;6.50;;;;;;;14.71;82.04;99139.94;2203629;80;21610;-79
2022/07/07 04:41:36;;;;;;;14.63;6.45;;;;;;;15.02;81.16;99135.13;2203258;80;20949;-80
2022/07/07 04:44:36;;;;;;;12.60;6.37;;;;;;;15.18;79.78;99134.66;2203413;80;20961;-81
2022/07/07 04:47:37;;;;;;;9.35;7.62;;;;;;;15.38;79.25;99137.24;2202676;80;21442;-80
2022/07/07 04:50:38;;;;;;;9.25;6.00;;;;;;;15.42;78.04;99137.67;2202114;80;20984;-81
2022/07/07 04:53:38;;;;;;;10.10;5.90;;;;;;;15.45;78.17;99140.30;2202619;81;21388;-80
2022/07/07 04:56:38;;;;;;;11.12;6.12;;;;;;;15.55;77.89;99140.70;2203247;81;20971;-80
2022/07/07 04:59:40;;;;;;;8.53;5.78;;;;;;;15.74;77.47;99143.76;2203272;80;20961;-80
2022/07/07 05:02:39;;;;;;;10.45;6.65;;;;;;;15.93;76.47;99135.34;2202845;80;20991;-80
2022/07/07 05:05:39;;;;;;;12.18;5.65;;;;;;;16.12;75.94;99136.11;2202447;80;21000;-82
2022/07/07 05:08:40;;;;;;;7.25;5.67;;;;;;;16.32;76.10;99129.40;2202367;80;21292;-83
2022/07/07 05:11:40;;;;;;;13.35;6.37;;;;;;;16.65;75.57;99126.99;2203194;80;20987;-84
2022/07/07 05:14:43;;;;;;;40.10;7.80;;;;;;;17.28;78.87;99124.67;2203041;80;20984;-84
2022/07/07 05:17:41;;;;;;;30.43;7.37;;;;;;;18.43;77.32;99131.18;2203645;80;20933;-83
2022/07/07 05:20:41;;;;;;;14.07;6.08;;;;;;;19.24;74.67;99130.32;2203791;80;20984;-83
2022/07/07 05:23:42;;;;;;;12.18;5.78;;;;;;;19.85;72.28;99122.52;2203920;80;20977;-84
2022/07/07 05:26:42;;;;;;;16.02;5.60;;;;;;;19.97;67.72;99119.64;2204262;81;21027;-83
2022/07/07 05:29:43;;;;;;;11.10;5.12;;;;;;;20.01;69.50;99119.99;2203500;81;20953;-83
2022/07/07 05:32:43;;;;;;;8.38;4.15;;;;;;;20.53;68.28;99114.85;2203259;80;20996;-86
2022/07/07 05:35:44;;;;;;;22.02;4.50;;;;;;;20.91;66.77;99103.31;2204536;80;20996;-83
2022/07/07 05:38:45;;;;;;;6.83;3.40;;;;;;;21.27;64.89;99113.00;2209707;81;21326;-82
2022/07/07 05:41:44;;;;;;;5.87;3.15;;;;;;;21.22;62.96;99104.70;2210238;80;21736;-83
2022/07/07 05:44:45;;;;;;;6.62;3.67;;;;;;;21.15;61.27;99111.09;2210249;80;21333;-83
2022/07/07 05:47:47;;;;;;;9.95;3.95;;;;;;;21.32;61.26;99110.67;2187296;81;20959;-84
2022/07/07 05:50:48;;;;;;;8.65;3.50;;;;;;;21.39;62.83;99114.45;2209374;80;20908;-83
2022/07/07 05:53:48;;;;;;;5.83;2.98;;;;;;;21.89;61.70;99105.52;2209382;80;20987;-82
2022/07/07 05:56:48;;;;;;;3.95;2.85;;;;;;;22.19;59.64;99113.92;2210222;81;20944;-83
2022/07/07 05:59:49;;;;;;;4.97;2.92;;;;;;;22.06;59.10;99114.34;2210391;80;21378;-83
2022/07/07 06:02:49;;;;;;;4.50;2.47;;;;;;;22.15;60.11;99118.05;2210516;80;20936;-83
2022/07/07 06:05:50;;;;;;;9.43;2.90;;;;;;;22.44;56.27;99118.47;2209468;81;21468;-81
2022/07/07 06:08:52;;;;;;;12.03;2.85;;;;;;;22.33;58.58;99115.28;2187809;81;20944;-82
2022/07/07 06:11:53;;;;;;;4.78;2.10;;;;;;;22.63;55.33;99117.45;2210091;80;20967;-83
2022/07/07 06:14:53;;;;;;;2.75;2.00;;;;;;;22.91;56.24;99110.78;2209489;81;20965;-83
2022/07/07 06:17:53;;;;;;;16.15;2.65;;;;;;;22.91;54.50;99110.78;2210101;81;20944;-83
2022/07/07 06:20:54;;;;;;;13.43;2.40;;;;;;;23.28;53.32;99106.38;2209843;81;20913;-83
2022/07/07 06:23:54;;;;;;;5.45;1.92;;;;;;;23.38;51.81;99106.46;2209642;80;20988;-85
2022/07/07 06:26:55;;;;;;;24.72;3.20;;;;;;;23.32;51.84;99100.89;2209526;80;20964;-83
2022/07/07 06:29:57;;;;;;;9.88;2.45;;;;;;;23.58;52.13;99092.48;2209632;80;20991;-85
2022/07/07 06:32:56;;;;;;;4.92;2.33;;;;;;;23.61;51.55;99095.03;2209757;81;20932;-83
2022/07/07 06:35:56;;;;;;;3.87;1.92;;;;;;;23.81;49.33;99089.36;2208691;80;21019;-83
2022/07/07 06:38:59;;;;;;;4.95;1.90;;;;;;;23.99;51.23;99086.45;2209868;81;20952;-84
2022/07/07 06:42:00;;;;;;;13.75;2.80;;;;;;;24.07;44.78;99087.02;2209832;80;20920;-86
2022/07/07 06:45:00;;;;;;;5.47;2.00;;;;;;;24.01;49.93;99081.93;2210108;80;20972;-84
2022/07/07 06:48:01;;;;;;;5.55;1.70;;;;;;;24.33;46.83;99079.86;2209765;80;21390;-84
2022/07/07 06:51:01;;;;;;;14.68;2.25;;;;;;;24.22;42.05;99080.68;2209447;81;21728;-84
2022/07/07 06:54:01;;;;;;;9.58;2.02;;;;;;;23.33;43.10;99081.32;2209405;81;21360;-83
2022/07/07 06:57:02;;;;;;;5.85;1.80;;;;;;;22.82;41.74;99076.03;2208728;80;20984;-83
2022/07/07 07:00:02;;;;;;;7.12;2.00;;;;;;;22.64;43.69;99077.49;2209201;80;20952;-84
2022/07/07 07:03:03;;;;;;;4.30;1.60;;;;;;;23.16;44.65;99077.93;2210356;80;20968;-83
2022/07/07 07:06:03;;;;;;;49.03;4.42;;;;;;;23.69;42.69;99078.30;2210083;81;20995;-83
2022/07/07 07:09:04;;;;;;;2.40;1.40;;;;;;;23.76;44.55;99070.47;2209558;81;20963;-83
2022/07/07 07:12:04;;;;;;;2.85;1.60;;;;;;;23.91;43.20;99071.22;2210018;80;21367;-81
2022/07/07 07:15:22;;;;;;;3.58;2.00;;;;;;;24.01;42.71;99071.27;2210433;81;20952;-82
2022/07/07 07:18:07;;;;;;;3.70;1.98;;;;;;;23.96;39.52;99077.24;2180785;81;20974;-84
2022/07/07 07:21:07;;;;;;;2.25;1.70;;;;;;;23.50;40.49;99079.41;2210781;80;20995;-84
2022/07/07 07:24:08;;;;;;;3.87;1.72;;;;;;;23.37;39.90;99080.28;2210109;80;21652;-83
2022/07/07 07:27:08;;;;;;;4.58;1.92;;;;;;;23.61;42.10;99077.25;2210132;80;20968;-83
2022/07/07 07:30:09;;;;;;;5.42;1.82;;;;;;;24.32;39.41;99075.45;2210233;80;20905;-83
2022/07/07 07:33:09;;;;;;;3.30;1.40;;;;;;;24.55;39.92;99075.84;2210256;80;20901;-84
2022/07/07 07:36:12;;;;;;;4.80;1.55;;;;;;;24.49;40.33;99070.30;2209777;81;21008;-83
2022/07/07 07:39:13;;;;;;;4.55;1.67;;;;;;;24.69;40.92;99069.00;2210008;80;20948;-83
2022/07/07 07:42:14;;;;;;;9.25;2.00;;;;;;;24.75;39.69;99073.22;2210529;81;20943;-83
2022/07/07 07:45:14;;;;;;;3.92;1.90;;;;;;;24.86;40.05;99072.77;2210550;81;20947;-83
2022/07/07 07:48:15;;;;;;;4.15;1.70;;;;;;;24.88;40.29;99069.56;2210462;81;21423;-83
2022/07/07 07:51:15;;;;;;;4.05;1.55;;;;;;;24.95;39.60;99075.04;2209181;80;20968;-82
2022/07/07 07:54:15;;;;;;;2.33;1.62;;;;;;;24.77;37.25;99070.88;2208668;81;20936;-82
2022/07/07 07:57:16;;;;;;;5.60;1.98;;;;;;;24.82;40.52;99075.16;2209029;80;20956;-80
2022/07/07 08:00:16;;;;;;;4.58;1.87;;;;;;;24.96;37.85;99070.10;2209387;80;20992;-83
2022/07/07 08:03:17;;;;;;;8.53;2.55;;;;;;;25.06;40.06;99068.34;2209975;80;20964;-85
2022/07/07 08:06:17;;;;;;;7.92;1.90;;;;;;;25.46;39.40;99067.07;2209459;81;21494;-83
2022/07/07 08:09:22;;;;;;;4.90;1.70;;;;;;;24.96;38.46;99074.11;2209855;80;20976;-86
2022/07/07 08:12:20;;;;;;;6.78;2.15;;;;;;;25.17;39.11;99067.91;2187671;81;20936;-84
2022/07/07 08:15:20;;;;;;;7.08;5.25;;;;;;;25.47;32.82;99071.48;2208829;81;21331;-84
2022/07/07 08:18:21;;;;;;;5.90;2.15;;;;;;;24.78;33.27;99067.75;2208601;80;20952;-86
2022/07/07 08:21:21;;;;;;;3.05;1.90;;;;;;;24.18;35.11;99065.73;2208801;80;20948;-81
2022/07/07 08:24:22;;;;;;;3.55;1.98;;;;;;;24.07;36.04;99068.36;2209177;80;20948;-84
2022/07/07 08:27:22;;;;;;;3.33;2.02;;;;;;;23.33;35.80;99076.46;2209972;80;20983;-85
2022/07/07 08:30:22;;;;;;;2.85;1.62;;;;;;;23.08;33.84;99076.47;2209235;81;21007;-86
2022/07/07 08:33:23;;;;;;;2.17;1.32;;;;;;;23.26;35.70;99072.28;2209256;80;21696;-83
2022/07/07 08:36:23;;;;;;;2.33;1.22;;;;;;;23.14;36.27;99072.25;2209127;80;20984;-84
2022/07/07 08:39:24;;;;;;;3.67;1.80;;;;;;;23.45;34.66;99073.38;2209515;81;21016;-84
2022/07/07 08:42:24;;;;;;;5.97;2.08;;;;;;;23.57;36.30;99065.43;2208857;81;20920;-85
2022/07/07 08:45:24;;;;;;;4.05;1.60;;;;;;;24.10;36.30;99064.23;2208948;81;20959;-84
2022/07/07 08:48:25;;;;;;;3.27;1.92;;;;;;;24.18;35.26;99072.40;2209043;80;21016;-85
2022/07/07 08:51:26;;;;;;;3.55;1.87;;;;;;;23.71;34.37;99068.45;2209293;81;20948;-86
2022/07/07 08:54:26;;;;;;;2.85;1.87;;;;;;;23.38;35.16;99065.17;2209598;81;20937;-84
2022/07/07 08:57:26;;;;;;;3.25;1.95;;;;;;;23.10;35.97;99074.16;2209836;80;21411;-84
2022/07/07 09:00:27;;;;;;;5.78;1.90;;;;;;;23.22;37.25;99075.98;2209364;80;20940;-85
2022/07/07 09:03:27;;;;;;;6.17;2.10;;;;;;;23.81;38.50;99072.03;2209411;81;20941;-85
2022/07/07 09:06:27;;;;;;;5.15;1.60;;;;;;;24.49;37.38;99069.43;2210506;81;21396;-82
2022/07/07 09:09:28;;;;;;;4.55;1.85;;;;;;;24.78;36.62;99067.28;2210198;80;21008;-85
2022/07/07 09:12:28;;;;;;;7.30;1.90;;;;;;;25.04;35.44;99067.53;2208902;81;20936;-83
2022/07/07 09:15:29;;;;;;;5.03;2.37;;;;;;;25.18;36.82;99067.44;2209377;81;20960;-82
2022/07/07 09:18:29;;;;;;;2.37;1.85;;;;;;;25.53;36.84;99071.20;2209368;80;20928;-84
2022/07/07 09:21:30;;;;;;;4.83;2.45;;;;;;;25.67;36.57;99074.14;2209817;80;21371;-84
2022/07/07 09:24:30;;;;;;;10.78;2.02;;;;;;;25.71;35.83;99070.39;2209067;81;20927;-85
2022/07/07 09:27:31;;;;;;;4.60;2.00;;;;;;;25.31;36.12;99065.48;2209881;80;21650;-83
2022/07/07 09:30:32;;;;;;;9.45;2.05;;;;;;;26.15;35.41;99067.00;2210172;81;20901;-84
2022/07/07 09:33:32;;;;;;;4.87;2.02;;;;;;;26.34;35.04;99065.67;2209793;80;20997;-84
2022/07/07 09:39:33;;;;;;;9.53;1.90;;;;;;;25.40;36.51;99056.19;2210011;80;20951;-85
2022/07/07 09:42:33;;;;;;;7.70;2.20;;;;;;;25.90;36.07;99057.03;2209920;80;20945;-86
2022/07/07 09:45:34;;;;;;;7.10;1.98;;;;;;;25.86;34.02;99053.64;2210030;81;20972;-88
2022/07/07 09:48:34;;;;;;;6.42;2.37;;;;;;;25.48;35.18;99055.37;2209039;80;21331;-85
2022/07/07 09:51:35;;;;;;;4.67;1.47;;;;;;;26.00;34.84;99060.54;2208108;81;20968;-85
2022/07/07 09:54:35;;;;;;;6.17;1.87;;;;;;;25.84;34.46;99056.86;2208965;80;20956;-85
2022/07/07 09:57:35;;;;;;;2.83;1.70;;;;;;;26.12;34.63;99055.11;2209163;81;20932;-86
2022/07/07 10:00:36;;;;;;;5.55;1.85;;;;;;;26.08;33.18;99065.56;2209335;80;20937;-84
2022/07/07 10:03:36;;;;;;;7.15;1.72;;;;;;;25.73;35.22;99052.48;2208307;80;20975;-85
2022/07/07 10:06:37;;;;;;;5.15;1.90;;;;;;;25.89;35.42;99051.29;2209132;80;20999;-84
2022/07/07 10:09:37;;;;;;;4.42;2.15;;;;;;;26.00;36.09;99048.50;2209795;80;20991;-86
2022/07/07 10:12:39;;;;;;;3.50;2.00;;;;;;;26.91;34.46;99050.34;2188020;81;20983;-86
2022/07/07 10:15:41;;;;;;;3.40;1.90;;;;;;;27.07;33.88;99051.78;2208821;81;21300;-86
2022/07/07 10:18:40;;;;;;;4.62;2.10;;;;;;;26.96;33.75;99053.65;2208831;81;21015;-83
2022/07/07 10:21:41;;;;;;;8.55;2.27;;;;;;;26.66;33.82;99051.55;2209249;81;21019;-84
2022/07/07 10:24:41;;;;;;;14.40;2.80;;;;;;;26.57;33.68;99051.16;2209177;80;21347;-84
2022/07/07 10:27:42;;;;;;;2.92;2.00;;;;;;;26.65;33.21;99043.60;2208332;80;21004;-84
2022/07/07 10:30:42;;;;;;;28.77;3.62;;;;;;;26.46;32.71;99049.01;2208525;81;20941;-85
2022/07/07 10:33:42;;;;;;;2.52;1.75;;;;;;;26.73;33.59;99043.22;2208437;80;21015;-85
2022/07/07 10:36:43;;;;;;;3.30;1.70;;;;;;;26.34;33.94;99039.78;2208047;81;21518;-85
2022/07/07 10:39:43;;;;;;;2.67;1.90;;;;;;;26.01;33.18;99039.57;2209530;81;20952;-86
2022/07/07 10:42:44;;;;;;;6.28;1.75;;;;;;;25.30;34.68;99037.03;2208858;81;20935;-86
2022/07/07 10:45:44;;;;;;;4.58;2.00;;;;;;;24.72;36.23;99038.18;2210457;80;21004;-86
2022/07/07 10:48:45;;;;;;;6.33;1.70;;;;;;;24.63;36.37;99036.37;2210084;81;20969;-85
2022/07/07 10:51:45;;;;;;;8.40;1.80;;;;;;;24.25;36.92;99037.42;2209752;80;20945;-81
2022/07/07 10:54:47;;;;;;;4.00;1.90;;;;;;;23.74;36.92;99039.02;2209857;80;20972;-85
2022/07/07 10:57:46;;;;;;;5.70;2.40;;;;;;;23.51;37.33;99038.52;2209361;80;21023;-85
2022/07/07 11:00:46;;;;;;;4.17;2.00;;;;;;;23.31;38.06;99035.23;2210792;80;20973;-85
2022/07/07 11:03:46;;;;;;;7.45;2.37;;;;;;;23.39;39.08;99034.48;2210662;80;20978;-85
2022/07/07 11:06:47;;;;;;;4.28;2.33;;;;;;;23.50;37.92;99030.99;2209272;81;21043;-84
2022/07/07 11:09:47;;;;;;;4.12;2.10;;;;;;;23.58;39.03;99023.20;2209542;81;20960;-86
2022/07/07 11:12:48;;;;;;;5.37;2.12;;;;;;;23.38;38.61;99019.89;2209071;80;21320;-86
2022/07/07 11:15:49;;;;;;;6.28;2.17;;;;;;;23.59;37.54;99012.95;2209467;80;20941;-85
2022/07/07 11:18:49;;;;;;;15.68;3.40;;;;;;;23.60;38.40;99016.89;2210755;81;20984;-84
2022/07/07 11:21:49;;;;;;;11.65;3.08;;;;;;;24.24;38.61;99011.67;2210122;80;21289;-87
2022/07/07 11:24:49;;;;;;;16.90;4.85;;;;;;;24.65;37.77;99008.67;2209983;80;20905;-85
2022/07/07 11:27:50;;;;;;;10.20;3.58;;;;;;;24.60;38.63;99011.14;2209952;80;21008;-84
2022/07/07 11:30:50;;;;;;;11.68;8.08;;;;;;;24.72;38.78;99002.61;2209419;81;20988;-87
2022/07/07 11:33:51;;;;;;;3.27;2.00;;;;;;;24.71;37.99;99008.41;2209555;80;21367;-82
2022/07/07 11:36:51;;;;;;;3.65;2.25;;;;;;;24.56;37.80;99008.20;2208643;80;20984;-84
2022/07/07 11:39:51;;;;;;;6.22;2.20;;;;;;;24.60;38.35;99006.67;2208310;81;20928;-85
2022/07/07 11:42:52;;;;;;;5.67;2.10;;;;;;;24.68;37.21;98993.00;2208926;81;20932;-84
2022/07/07 11:45:52;;;;;;;5.40;2.12;;;;;;;24.47;37.28;98995.25;2208662;81;21388;-85
2022/07/07 11:48:53;;;;;;;10.13;2.00;;;;;;;24.86;37.57;98992.67;2209272;81;20984;-85
2022/07/07 11:51:53;;;;;;;2.98;1.80;;;;;;;25.79;35.81;98996.05;2209597;81;20956;-82
2022/07/07 11:54:53;;;;;;;9.88;2.15;;;;;;;26.26;34.04;98988.89;2208871;81;20964;-84
2022/07/07 11:57:54;;;;;;;5.83;1.98;;;;;;;26.61;34.41;98988.01;2208960;80;20984;-87
2022/07/07 12:00:56;;;;;;;5.85;2.00;;;;;;;26.48;34.16;98984.22;2186693;81;20928;-85
2022/07/07 12:03:57;;;;;;;3.98;1.98;;;;;;;25.77;34.93;98983.22;2209458;80;21579;-86
2022/07/07 12:06:57;;;;;;;8.85;2.10;;;;;;;25.49;35.25;98980.08;2208556;81;20949;-86
2022/07/07 12:09:57;;;;;;;3.45;2.00;;;;;;;25.22;35.26;98976.41;2207925;81;21431;-86
2022/07/07 12:12:58;;;;;;;4.20;1.95;;;;;;;24.97;35.61;98979.71;2209313;81;21324;-90
2022/07/07 12:16:00;;;;;;;4.90;1.90;;;;;;;24.44;36.88;98981.56;2208905;80;20968;-86
2022/07/07 12:18:59;;;;;;;5.72;2.52;;;;;;;24.21;37.61;98980.27;2208626;80;21012;-85
2022/07/07 12:21:59;;;;;;;6.33;2.40;;;;;;;23.87;38.43;98985.63;2209144;80;20975;-85
2022/07/07 12:24:59;;;;;;;10.58;3.20;;;;;;;23.90;38.14;98981.97;2209310;80;20948;-84
2022/07/07 12:28:00;;;;;;;4.40;2.00;;;;;;;23.65;39.35;98982.07;2209083;80;21020;-86
2022/07/07 12:31:00;;;;;;;9.68;2.80;;;;;;;23.57;38.83;98974.84;2208003;80;20944;-86
2022/07/07 12:34:01;;;;;;;8.78;2.87;;;;;;;23.45;40.22;98974.81;2208411;80;21686;-85
2022/07/07 12:37:01;;;;;;;4.80;2.20;;;;;;;23.79;39.85;98973.07;2208970;80;21019;-86
2022/07/07 12:40:02;;;;;;;4.40;2.47;;;;;;;24.10;38.82;98970.91;2209007;80;20925;-86
2022/07/07 12:43:02;;;;;;;6.62;2.70;;;;;;;24.23;38.92;98969.06;2208586;80;21254;-86
2022/07/07 12:46:02;;;;;;;5.17;2.10;;;;;;;24.52;38.80;98978.11;2209224;80;20960;-85
2022/07/07 12:49:03;;;;;;;7.92;2.47;;;;;;;24.97;38.36;98967.27;2209738;80;20952;-84
2022/07/07 12:52:03;;;;;;;12.82;2.70;;;;;;;25.29;37.02;98963.16;2210520;80;21008;-86
2022/07/07 12:55:04;;;;;;;13.43;2.92;;;;;;;25.48;36.81;98959.16;2209377;81;20937;-82
2022/07/07 12:58:04;;;;;;;4.37;2.40;;;;;;;25.28;36.97;98949.41;2209081;80;21011;-86
2022/07/07 13:01:04;;;;;;;4.03;2.20;;;;;;;25.38;36.94;98949.37;2209826;81;20964;-86
2022/07/07 13:04:05;;;;;;;17.87;3.15;;;;;;;25.70;36.56;98953.70;2208390;80;20995;-83
2022/07/07 13:07:14;;;;;;;12.45;2.58;;;;;;;25.97;35.41;98948.36;2208797;81;20979;-87
2022/07/07 13:10:15;;;;;;;5.05;2.00;;;;;;;26.65;33.57;98936.51;2209095;81;20944;-85
2022/07/07 13:13:18;;;;;;;3.15;2.05;;;;;;;26.89;33.70;98941.95;2208656;81;20975;-83
2022/07/07 13:16:18;;;;;;;3.50;2.17;;;;;;;26.72;32.69;98937.92;2208300;80;20919;-82
2022/07/07 13:19:18;;;;;;;3.85;2.02;;;;;;;26.53;33.44;98934.00;2208909;80;20952;-82
2022/07/07 13:22:19;;;;;;;10.08;2.72;;;;;;;26.33;34.24;98936.36;2209648;80;20928;-83
2022/07/07 13:25:19;;;;;;;11.97;3.20;;;;;;;26.47;33.79;98931.63;2207590;80;20912;-83
2022/07/07 13:28:20;;;;;;;7.42;2.22;;;;;;;26.51;33.80;98930.53;2207778;81;20972;-81
2022/07/07 13:31:20;;;;;;;4.85;2.70;;;;;;;26.55;34.13;98926.75;2208554;81;20992;-81
2022/07/07 13:34:20;;;;;;;4.72;2.45;;;;;;;26.44;34.19;98930.45;2207503;80;21415;-82
2022/07/07 13:37:21;;;;;;;4.28;2.20;;;;;;;26.34;34.45;98935.88;2207679;80;21016;-80
2022/07/07 13:40:22;;;;;;;5.67;2.02;;;;;;;26.16;34.71;98932.77;2208831;80;21019;-84
2022/07/07 13:43:22;;;;;;;5.35;2.50;;;;;;;26.12;34.54;98928.51;2209199;80;20936;-81
2022/07/07 13:46:24;;;;;;;3.83;2.00;;;;;;;25.84;35.15;98936.52;2208574;80;21643;-84
2022/07/07 13:49:23;;;;;;;4.60;2.40;;;;;;;25.69;33.46;98930.59;2208570;80;20967;-84
2022/07/07 13:52:23;;;;;;;4.12;1.95;;;;;;;25.44;35.06;98925.98;2208821;80;21267;-84
2022/07/07 13:55:23;;;;;;;5.05;1.80;;;;;;;25.22;34.96;98922.11;2209357;80;21289;-85
2022/07/07 13:58:24;;;;;;;10.85;2.45;;;;;;;24.86;35.23;98923.25;2209142;81;20956;-86
2022/07/07 14:01:24;;;;;;;1.77;1.50;;;;;;;24.46;35.86;98921.00;2208979;81;20976;-86
2022/07/07 14:04:24;;;;;;;4.12;2.00;;;;;;;24.22;36.57;98921.98;2209133;81;21024;-87
2022/07/07 14:07:25;;;;;;;3.42;2.15;;;;;;;24.17;38.09;98918.65;2209475;80;21004;-86
2022/07/07 14:10:25;;;;;;;5.40;1.90;;;;;;;24.30;36.99;98922.59;2209260;80;21011;-86